createdAt,value
2024-01-16T00:02:01.160Z,3.97
2024-01-16T00:04:31.124Z,3.45
2024-01-16T00:06:59.477Z,3.50
2024-01-16T00:09:28.106Z,3.80
2024-01-16T00:11:56.671Z,3.95
2024-01-16T00:14:25.195Z,4.00
2024-01-16T00:16:55.202Z,3.30
2024-01-16T00:19:23.789Z,3.60
2024-01-16T00:21:52.494Z,3.40
2024-01-16T00:24:21.168Z,3.75
2024-01-16T00:26:51.049Z,3.28
2024-01-16T00:29:19.538Z,3.40
2024-01-16T00:31:47.988Z,3.20
2024-01-16T00:34:17.955Z,2.97
2024-01-16T00:36:46.593Z,2.78
2024-01-16T00:39:15.555Z,3.30
2024-01-16T00:41:44.163Z,3.33
2024-01-16T00:44:13.558Z,3.10
2024-01-16T00:49:10.711Z,2.70
2024-01-16T00:51:40.527Z,2.78
2024-01-16T00:54:09.337Z,2.55
2024-01-16T00:56:38.080Z,3.75
2024-01-16T00:59:06.496Z,3.30
2024-01-16T01:01:35.203Z,3.10
2024-01-16T01:04:03.728Z,2.92
2024-01-16T01:06:32.475Z,2.90
2024-01-16T01:09:02.388Z,3.38
2024-01-16T01:11:30.822Z,2.58
2024-01-16T01:13:59.575Z,3.00
2024-01-16T01:16:28.146Z,2.72
2024-01-16T01:18:56.849Z,2.63
2024-01-16T01:21:25.455Z,2.20
2024-01-16T01:23:53.899Z,2.55
2024-01-16T01:26:24.021Z,2.45
2024-01-16T01:28:53.463Z,2.50
2024-01-16T01:33:50.100Z,2.03
2024-01-16T01:36:18.525Z,2.33
2024-01-16T01:38:47.021Z,2.60
2024-01-16T01:41:15.768Z,2.47
2024-01-16T01:43:46.045Z,2.78
2024-01-16T01:46:17.692Z,2.72
2024-01-16T01:48:48.000Z,2.60
2024-01-16T01:51:20.122Z,2.47
2024-01-16T01:53:52.491Z,2.55
2024-01-16T01:56:23.135Z,2.70
2024-01-16T01:58:59.985Z,2.72
2024-01-16T02:01:31.630Z,2.85
2024-01-16T02:04:01.302Z,2.70
2024-01-16T02:06:30.089Z,2.78
2024-01-16T02:08:59.153Z,2.85
2024-01-16T02:11:27.800Z,3.15
2024-01-16T02:13:57.568Z,3.15
2024-01-16T02:16:26.560Z,3.00
2024-01-16T02:18:55.644Z,3.33
2024-01-16T02:21:27.362Z,3.72
2024-01-16T02:23:57.365Z,3.90
2024-01-16T02:26:25.931Z,4.03
2024-01-16T02:28:54.706Z,3.90
2024-01-16T02:31:22.983Z,4.05
2024-01-16T02:33:51.390Z,3.80
2024-01-16T02:36:19.734Z,3.97
2024-01-16T02:38:48.631Z,4.18
2024-01-16T02:41:19.136Z,3.53
2024-01-16T02:43:47.571Z,3.92
2024-01-16T02:46:16.283Z,3.63
2024-01-16T02:48:44.908Z,4.07
2024-01-16T02:51:13.891Z,4.35
2024-01-16T02:53:42.297Z,3.70
2024-01-16T02:56:11.011Z,3.63
2024-01-16T02:58:40.783Z,4.00
2024-01-16T03:01:09.134Z,3.35
2024-01-16T03:03:37.762Z,3.40
2024-01-16T03:06:06.893Z,3.25
2024-01-16T03:08:35.498Z,3.50
2024-01-16T03:11:03.898Z,3.20
2024-01-16T03:13:32.228Z,3.25
2024-01-16T03:16:01.924Z,2.97
2024-01-16T03:18:31.086Z,3.10
2024-01-16T03:21:00.762Z,2.80
2024-01-16T03:23:29.099Z,2.72
2024-01-16T03:25:58.423Z,2.90
2024-01-16T03:30:55.050Z,2.40
2024-01-16T03:33:24.929Z,2.70
2024-01-16T03:35:53.591Z,2.40
2024-01-16T03:38:21.993Z,2.50
2024-01-16T03:40:50.510Z,2.20
2024-01-16T03:43:18.837Z,2.53
2024-01-16T03:45:47.100Z,2.67
2024-01-16T03:48:15.618Z,2.60
2024-01-16T03:50:46.518Z,2.88
2024-01-16T03:53:14.916Z,2.75
2024-01-16T03:55:43.246Z,3.08
2024-01-16T03:58:13.525Z,3.08
2024-01-16T04:00:42.228Z,3.22
2024-01-16T04:03:10.691Z,3.70
2024-01-16T04:05:39.146Z,3.20
2024-01-16T04:08:09.133Z,3.50
2024-01-16T04:10:38.141Z,3.55
2024-01-16T04:13:07.271Z,3.67
2024-01-16T04:15:35.768Z,3.65
2024-01-16T04:18:04.686Z,3.40
2024-01-16T04:20:33.033Z,3.38
2024-01-16T04:23:01.341Z,3.55
2024-01-16T04:25:30.953Z,3.90
2024-01-16T04:28:03.251Z,3.60
2024-01-16T04:30:32.006Z,3.80
2024-01-16T04:33:00.576Z,3.90
2024-01-16T04:35:29.040Z,3.85
2024-01-16T04:37:57.362Z,3.80
2024-01-16T04:40:25.650Z,4.70
2024-01-16T04:42:55.267Z,4.72
2024-01-16T04:45:24.332Z,4.88
2024-01-16T04:47:52.755Z,5.25
2024-01-16T04:50:21.349Z,5.25
2024-01-16T04:52:52.348Z,5.65
2024-01-16T04:55:21.968Z,5.63
2024-01-16T04:57:51.116Z,5.63
2024-01-16T05:00:21.209Z,5.80
2024-01-16T05:02:49.742Z,6.05
2024-01-16T05:05:18.632Z,7.05
2024-01-16T05:07:47.286Z,6.55
2024-01-16T05:10:15.862Z,5.93
2024-01-16T05:12:44.690Z,6.05
2024-01-16T05:15:13.766Z,6.50
2024-01-16T05:17:43.758Z,6.22
2024-01-16T05:20:12.661Z,5.85
2024-01-16T05:22:41.002Z,6.38
2024-01-16T05:25:10.247Z,6.10
2024-01-16T05:27:38.831Z,5.88
2024-01-16T05:30:09.229Z,6.15
2024-01-16T05:32:37.840Z,5.35
2024-01-16T05:35:08.555Z,5.65
2024-01-16T05:37:37.214Z,5.75
2024-01-16T05:40:08.325Z,5.65
2024-01-16T05:42:37.216Z,6.05
2024-01-16T05:45:06.459Z,5.82
2024-01-16T05:47:34.861Z,5.55
2024-01-16T05:50:03.406Z,5.87
2024-01-16T05:52:33.150Z,5.05
2024-01-16T05:55:01.685Z,5.72
2024-01-16T05:57:32.450Z,5.85
2024-01-16T06:00:00.863Z,5.47
2024-01-16T06:02:29.227Z,4.87
2024-01-16T06:04:57.720Z,5.17
2024-01-16T06:07:26.010Z,6.03
2024-01-16T06:09:55.933Z,5.30
2024-01-16T06:12:24.257Z,5.68
2024-01-16T06:14:52.586Z,5.60
2024-01-16T06:17:21.061Z,4.97
2024-01-16T06:19:49.317Z,5.10
2024-01-16T06:22:17.638Z,4.68
2024-01-16T06:24:45.940Z,5.15
2024-01-16T06:27:19.996Z,5.30
2024-01-16T06:29:48.517Z,5.53
2024-01-16T06:32:17.251Z,5.00
2024-01-16T06:34:45.654Z,5.70
2024-01-16T06:37:13.959Z,5.07
2024-01-16T06:39:42.246Z,5.38
2024-01-16T06:42:11.512Z,5.22
2024-01-16T06:44:41.604Z,4.65
2024-01-16T06:47:10.090Z,4.68
2024-01-16T06:49:38.482Z,4.70
2024-01-16T06:52:07.216Z,4.53
2024-01-16T06:54:35.800Z,4.53
2024-01-16T06:57:04.702Z,4.72
2024-01-16T06:59:33.021Z,4.18
2024-01-16T07:02:02.704Z,4.45
2024-01-16T07:04:31.367Z,4.10
2024-01-16T07:07:00.491Z,4.10
2024-01-16T07:09:29.209Z,4.03
2024-01-16T07:11:59.717Z,4.32
2024-01-16T07:14:28.174Z,3.92
2024-01-16T07:16:56.515Z,4.13
2024-01-16T07:19:26.460Z,3.58
2024-01-16T07:21:55.126Z,4.05
2024-01-16T07:24:23.547Z,4.70
2024-01-16T07:26:52.130Z,4.70
2024-01-16T07:29:21.065Z,4.95
2024-01-16T07:31:49.446Z,5.30
2024-01-16T07:34:22.160Z,4.90
2024-01-16T07:36:52.303Z,4.95
2024-01-16T07:39:23.532Z,5.55
2024-01-16T07:41:52.071Z,5.07
2024-01-16T07:44:20.425Z,5.40
2024-01-16T07:46:48.762Z,5.18
2024-01-16T07:49:17.272Z,6.88
2024-01-16T07:51:45.557Z,7.57
2024-01-16T07:54:15.240Z,6.50
2024-01-16T07:56:43.889Z,7.35
2024-01-16T07:59:12.276Z,6.80
2024-01-16T08:01:40.810Z,6.80
2024-01-16T08:04:09.167Z,7.40
2024-01-16T08:06:37.960Z,6.97
2024-01-16T08:09:07.117Z,6.97
2024-01-16T08:11:37.746Z,6.13
2024-01-16T08:14:06.188Z,6.25
2024-01-16T08:16:34.705Z,6.60
2024-01-16T08:19:04.482Z,6.97
2024-01-16T08:21:32.934Z,6.18
2024-01-16T08:24:01.291Z,6.95
2024-01-16T08:26:29.812Z,7.00
2024-01-16T08:31:28.212Z,6.45
2024-01-16T08:33:58.622Z,6.35
2024-01-16T08:36:27.162Z,6.65
2024-01-16T08:38:56.407Z,6.60
2024-01-16T08:43:54.295Z,6.75
2024-01-16T08:46:24.277Z,5.95
2024-01-16T08:48:52.722Z,5.57
2024-01-16T08:51:21.389Z,6.43
2024-01-16T08:53:49.988Z,6.82
2024-01-16T08:56:18.701Z,8.82
2024-01-16T08:58:47.262Z,6.38
2024-01-16T09:01:15.968Z,5.93
2024-01-16T09:03:45.631Z,5.72
2024-01-16T09:06:13.995Z,7.60
2024-01-16T09:08:42.420Z,6.60
2024-01-16T09:11:11.821Z,6.72
2024-01-16T09:16:08.137Z,7.25
2024-01-16T09:18:37.190Z,6.50
2024-01-16T09:21:07.182Z,5.75
2024-01-16T09:23:35.586Z,5.90
2024-01-16T09:26:04.003Z,5.90
2024-01-16T09:28:32.302Z,5.93
2024-01-16T09:31:00.647Z,6.85
2024-01-16T09:33:29.166Z,6.07
2024-01-16T09:35:57.591Z,7.30
2024-01-16T09:38:27.661Z,5.90
2024-01-16T09:40:59.437Z,6.93
2024-01-16T09:43:29.376Z,6.43
2024-01-16T09:46:02.843Z,6.00
2024-01-16T09:48:33.478Z,6.03
2024-01-16T09:51:02.424Z,7.38
2024-01-16T09:53:32.180Z,5.88
2024-01-16T09:56:04.466Z,6.95
2024-01-16T09:58:38.371Z,7.18
2024-01-16T10:01:07.424Z,7.57
2024-01-16T10:03:37.013Z,9.93
2024-01-16T10:06:08.511Z,8.23
2024-01-16T10:08:38.918Z,8.50
2024-01-16T10:11:07.254Z,9.80
2024-01-16T10:13:36.434Z,13.50
2024-01-16T10:16:05.305Z,17.88
2024-01-16T10:18:35.054Z,11.45
2024-01-16T10:21:03.911Z,32.42
2024-01-16T10:23:33.848Z,15.25
2024-01-16T10:26:10.306Z,14.05
2024-01-16T10:28:39.650Z,11.82
2024-01-16T10:31:09.345Z,10.68
2024-01-16T10:33:40.629Z,11.27
2024-01-16T10:36:14.351Z,11.25
2024-01-16T10:38:44.702Z,11.00
2024-01-16T10:41:16.631Z,10.63
2024-01-16T10:43:46.189Z,10.88
2024-01-16T10:46:16.287Z,10.45
2024-01-16T10:48:46.106Z,10.02
2024-01-16T10:51:16.994Z,9.18
2024-01-16T10:53:47.989Z,9.70
2024-01-16T10:56:20.664Z,9.93
2024-01-16T10:58:58.367Z,9.23
2024-01-16T11:01:27.383Z,9.25
2024-01-16T11:03:58.494Z,10.18
2024-01-16T11:06:28.484Z,11.13
2024-01-16T11:08:59.599Z,10.38
2024-01-16T11:11:30.226Z,8.85
2024-01-16T11:13:59.456Z,9.10
2024-01-16T11:16:28.265Z,7.60
2024-01-16T11:19:04.187Z,7.45
2024-01-16T11:21:43.119Z,7.60
2024-01-16T11:24:11.502Z,7.00
2024-01-16T11:26:43.180Z,6.65
2024-01-16T11:29:39.045Z,6.57
2024-01-16T11:32:18.347Z,5.35
2024-01-16T11:34:58.732Z,5.93
2024-01-16T11:37:30.011Z,5.50
2024-01-16T11:40:23.822Z,5.97
2024-01-16T11:42:55.818Z,6.80
2024-01-16T11:45:56.060Z,5.25
2024-01-16T11:48:24.534Z,6.18
2024-01-16T11:50:53.324Z,8.55
2024-01-16T11:53:35.177Z,5.65
2024-01-16T11:56:18.712Z,5.97
2024-01-16T11:58:52.754Z,6.97
2024-01-16T12:01:22.266Z,7.32
2024-01-16T12:04:04.044Z,4.47
2024-01-16T12:06:32.513Z,4.20
2024-01-16T12:09:21.938Z,4.88
2024-01-16T12:14:28.355Z,6.20
2024-01-16T12:17:10.837Z,8.32
2024-01-16T12:19:41.359Z,5.95
2024-01-16T12:22:11.855Z,5.00
2024-01-16T12:24:40.354Z,7.70
2024-01-16T12:27:09.337Z,5.83
2024-01-16T12:29:41.131Z,5.72
2024-01-16T12:32:10.827Z,4.97
2024-01-16T12:34:47.769Z,5.10
2024-01-16T12:37:16.673Z,6.38
2024-01-16T12:39:45.016Z,5.60
2024-01-16T12:42:14.118Z,4.15
2024-01-16T12:44:43.898Z,4.57
2024-01-16T12:47:12.315Z,5.30
2024-01-16T12:49:43.960Z,5.45
2024-01-16T12:52:21.466Z,4.88
2024-01-16T12:54:51.336Z,5.15
2024-01-16T12:57:20.901Z,4.32
2024-01-16T12:59:51.399Z,4.90
2024-01-16T13:02:24.151Z,6.45
2024-01-16T13:04:59.894Z,5.97
2024-01-16T13:07:29.124Z,5.18
2024-01-16T13:10:12.689Z,6.03
2024-01-16T13:12:40.964Z,9.65
2024-01-16T13:15:12.193Z,12.70
2024-01-16T13:17:40.682Z,8.75
2024-01-16T13:20:11.494Z,6.57
2024-01-16T13:22:45.124Z,9.43
2024-01-16T13:25:16.431Z,7.90
2024-01-16T13:27:44.896Z,4.90
2024-01-16T13:30:15.701Z,10.18
2024-01-16T13:32:44.515Z,4.15
2024-01-16T13:35:13.461Z,4.82
2024-01-16T13:37:42.289Z,8.80
2024-01-16T13:40:12.170Z,4.68
2024-01-16T13:42:41.015Z,7.40
2024-01-16T13:45:10.692Z,4.85
2024-01-16T13:47:41.858Z,3.92
2024-01-16T13:50:11.559Z,6.10
2024-01-16T13:52:41.037Z,10.80
2024-01-16T13:55:09.880Z,4.60
2024-01-16T13:57:38.625Z,6.00
2024-01-16T14:00:09.002Z,4.82
2024-01-16T14:02:38.414Z,6.38
2024-01-16T14:05:11.928Z,8.35
2024-01-16T14:07:40.448Z,8.60
2024-01-16T14:10:13.044Z,5.57
2024-01-16T14:12:43.828Z,4.57
2024-01-16T14:15:19.762Z,4.80
2024-01-16T14:17:49.501Z,4.80
2024-01-16T14:20:26.156Z,4.22
2024-01-16T14:22:56.144Z,3.90
2024-01-16T14:25:24.715Z,4.53
2024-01-16T14:28:02.314Z,4.00
2024-01-16T14:30:30.772Z,3.92
2024-01-16T14:32:59.611Z,5.53
2024-01-16T14:35:29.760Z,5.60
2024-01-16T14:37:58.440Z,5.10
2024-01-16T14:40:27.577Z,3.83
2024-01-16T14:42:58.034Z,3.33
2024-01-16T14:45:28.084Z,10.95
2024-01-16T14:47:56.832Z,4.45
2024-01-16T14:50:25.920Z,3.55
2024-01-16T14:52:55.928Z,3.50
2024-01-16T14:55:26.785Z,3.50
2024-01-16T14:58:00.985Z,4.38
2024-01-16T15:00:29.948Z,4.05
2024-01-16T15:02:59.169Z,3.97
2024-01-16T15:05:27.738Z,4.65
2024-01-16T15:07:57.887Z,4.63
2024-01-16T15:10:26.267Z,4.22
2024-01-16T15:12:54.665Z,5.03
2024-01-16T15:15:23.217Z,4.27
2024-01-16T15:17:53.608Z,4.90
2024-01-16T15:20:22.258Z,4.88
2024-01-16T15:22:53.818Z,4.35
2024-01-16T15:25:25.784Z,4.18
2024-01-16T15:27:55.526Z,3.80
2024-01-16T15:30:29.151Z,3.70
2024-01-16T15:32:57.976Z,4.25
2024-01-16T15:35:26.751Z,3.30
2024-01-16T15:37:55.729Z,5.82
2024-01-16T15:40:25.936Z,7.60
2024-01-16T15:42:55.768Z,4.13
2024-01-16T15:45:27.430Z,3.70
2024-01-16T15:47:56.319Z,3.30
2024-01-16T15:50:25.000Z,4.45
2024-01-16T15:52:53.776Z,8.02
2024-01-16T15:55:22.532Z,10.90
2024-01-16T15:57:52.685Z,7.65
2024-01-16T16:00:23.307Z,6.07
2024-01-16T16:02:52.282Z,5.65
2024-01-16T16:05:21.979Z,6.30
2024-01-16T16:07:50.660Z,5.75
2024-01-16T16:10:19.749Z,6.15
2024-01-16T16:12:48.389Z,5.10
2024-01-16T16:15:18.432Z,4.60
2024-01-16T16:17:47.013Z,4.88
2024-01-16T16:20:15.960Z,4.75
2024-01-16T16:22:46.622Z,5.25
2024-01-16T16:25:16.028Z,5.03
2024-01-16T16:27:46.346Z,4.97
2024-01-16T16:30:25.550Z,5.50
2024-01-16T16:32:55.732Z,7.13
2024-01-16T16:35:24.515Z,5.85
2024-01-16T16:37:53.061Z,6.78
2024-01-16T16:40:21.904Z,8.15
2024-01-16T16:42:50.549Z,6.70
2024-01-16T16:45:19.836Z,6.70
2024-01-16T16:47:48.377Z,6.20
2024-01-16T16:50:20.194Z,6.85
2024-01-16T16:52:50.491Z,6.55
2024-01-16T16:55:18.976Z,6.68
2024-01-16T16:57:50.016Z,12.50
2024-01-16T17:00:20.767Z,9.88
2024-01-16T17:02:49.508Z,7.60
2024-01-16T17:05:20.352Z,6.70
2024-01-16T17:07:49.022Z,11.57
2024-01-16T17:10:17.834Z,8.57
2024-01-16T17:12:46.663Z,11.10
2024-01-16T17:15:15.344Z,9.18
2024-01-16T17:17:43.906Z,6.95
2024-01-16T17:20:14.024Z,6.63
2024-01-16T17:22:43.981Z,7.38
2024-01-16T17:25:12.810Z,8.10
2024-01-16T17:27:41.463Z,7.07
2024-01-16T17:30:11.142Z,7.03
2024-01-16T17:32:39.731Z,7.45
2024-01-16T17:35:11.974Z,10.05
2024-01-16T17:37:40.389Z,8.70
2024-01-16T17:40:14.108Z,13.95
2024-01-16T17:42:43.066Z,12.85
2024-01-16T17:45:12.816Z,10.00
2024-01-16T17:47:42.164Z,9.95
2024-01-16T17:52:41.161Z,8.10
2024-01-16T17:55:12.811Z,13.35
2024-01-16T17:57:43.067Z,9.65
2024-01-16T18:00:12.953Z,9.00
2024-01-16T18:02:42.390Z,8.82
2024-01-16T18:05:17.385Z,8.50
2024-01-16T18:07:46.520Z,7.55
2024-01-16T18:10:16.969Z,7.68
2024-01-16T18:12:45.506Z,6.85
2024-01-16T18:15:14.445Z,6.90
2024-01-16T18:17:45.894Z,6.38
2024-01-16T18:20:17.777Z,6.90
2024-01-16T18:22:47.653Z,6.97
2024-01-16T18:25:17.719Z,6.07
2024-01-16T18:27:48.185Z,6.35
2024-01-16T18:30:17.046Z,7.07
2024-01-16T18:32:47.852Z,6.90
2024-01-16T18:35:17.984Z,6.55
2024-01-16T18:37:47.964Z,6.70
2024-01-16T18:40:19.439Z,5.97
2024-01-16T18:42:48.270Z,6.75
2024-01-16T18:45:17.786Z,5.68
2024-01-16T18:47:49.372Z,6.47
2024-01-16T18:50:19.086Z,6.30
2024-01-16T18:52:47.733Z,6.55
2024-01-16T18:55:17.898Z,6.77
2024-01-16T18:57:46.865Z,6.20
2024-01-16T19:00:16.069Z,6.97
2024-01-16T19:02:45.242Z,6.93
2024-01-16T19:05:14.859Z,6.13
2024-01-16T19:07:44.069Z,5.82
2024-01-16T19:10:14.630Z,5.78
2024-01-16T19:12:47.237Z,6.32
2024-01-16T19:15:19.367Z,7.28
2024-01-16T19:17:48.899Z,6.40
2024-01-16T19:22:46.691Z,5.85
2024-01-16T19:25:17.578Z,6.78
2024-01-16T19:27:49.723Z,7.20
2024-01-16T19:30:21.121Z,8.27
2024-01-16T19:32:50.302Z,19.23
2024-01-16T19:35:19.487Z,10.43
2024-01-16T19:37:48.010Z,25.23
2024-01-16T19:40:18.134Z,13.27
2024-01-16T19:42:48.235Z,9.95
2024-01-16T19:45:19.108Z,15.10
2024-01-16T19:47:50.301Z,7.50
2024-01-16T19:50:23.061Z,11.48
2024-01-16T19:52:56.411Z,13.13
2024-01-16T19:55:26.014Z,10.73
2024-01-16T19:57:58.352Z,9.18
2024-01-16T20:00:27.455Z,7.07
2024-01-16T20:02:57.252Z,6.18
2024-01-16T20:05:25.964Z,6.57
2024-01-16T20:07:54.577Z,6.78
2024-01-16T20:10:24.217Z,11.30
2024-01-16T20:12:52.696Z,12.65
2024-01-16T20:15:23.131Z,7.43
2024-01-16T20:17:54.632Z,9.57
2024-01-16T20:20:23.574Z,5.97
2024-01-16T20:22:53.262Z,7.38
2024-01-16T20:25:24.682Z,6.55
2024-01-16T20:30:33.781Z,7.97
2024-01-16T20:33:02.188Z,7.65
2024-01-16T20:35:30.761Z,6.40
2024-01-16T20:37:59.175Z,7.13
2024-01-16T20:40:27.475Z,6.45
2024-01-16T20:42:55.771Z,6.88
2024-01-16T20:45:24.103Z,6.25
2024-01-16T20:47:53.807Z,5.60
2024-01-16T20:50:22.203Z,5.68
2024-01-16T20:52:50.530Z,5.65
2024-01-16T20:55:18.866Z,5.97
2024-01-16T20:57:48.180Z,5.85
2024-01-16T21:02:45.501Z,5.93
2024-01-16T21:05:15.473Z,4.97
2024-01-16T21:07:44.398Z,5.50
2024-01-16T21:10:13.019Z,5.88
2024-01-16T21:12:42.599Z,5.10
2024-01-16T21:15:11.559Z,5.32
2024-01-16T21:17:40.419Z,5.05
2024-01-16T21:20:10.389Z,4.82
2024-01-16T21:22:40.065Z,4.82
2024-01-16T21:25:09.842Z,5.13
2024-01-16T21:27:38.915Z,5.43
2024-01-16T21:30:09.711Z,4.65
2024-01-16T21:32:38.248Z,5.30
2024-01-16T21:35:07.660Z,5.10
2024-01-16T21:37:36.076Z,4.72
2024-01-16T21:40:06.876Z,4.88
2024-01-16T21:42:35.738Z,5.20
2024-01-16T21:45:04.707Z,5.13
2024-01-16T21:47:33.166Z,5.18
2024-01-16T21:50:06.546Z,5.80
2024-01-16T21:52:36.245Z,5.15
2024-01-16T21:55:07.607Z,5.65
2024-01-16T21:57:36.736Z,5.72
2024-01-16T22:00:13.091Z,5.85
2024-01-16T22:02:41.729Z,5.90
2024-01-16T22:05:11.683Z,5.88
2024-01-16T22:07:40.314Z,5.88
2024-01-16T22:10:10.533Z,5.50
2024-01-16T22:12:38.851Z,6.22
2024-01-16T22:15:08.672Z,6.40
2024-01-16T22:17:38.038Z,6.50
2024-01-16T22:22:35.863Z,5.57
2024-01-16T22:25:04.743Z,6.30
2024-01-16T22:27:34.890Z,6.65
2024-01-16T22:30:03.548Z,6.47
2024-01-16T22:32:32.142Z,6.50
2024-01-16T22:35:00.455Z,6.88
2024-01-16T22:37:31.039Z,6.30
2024-01-16T22:39:59.502Z,6.80
2024-01-16T22:42:28.174Z,7.10
2024-01-16T22:44:57.881Z,6.60
2024-01-16T22:47:26.597Z,6.13
2024-01-16T22:49:55.000Z,6.40
2024-01-16T22:52:23.741Z,6.63
2024-01-16T22:54:52.137Z,6.43
2024-01-16T22:57:20.501Z,6.70
2024-01-16T22:59:49.803Z,6.80
2024-01-16T23:04:47.626Z,6.45
2024-01-16T23:07:17.479Z,6.75
2024-01-16T23:09:45.834Z,6.25
2024-01-16T23:12:14.162Z,6.30
2024-01-16T23:14:42.692Z,6.97
2024-01-16T23:17:11.821Z,6.70
2024-01-16T23:19:41.791Z,7.25
2024-01-16T23:22:10.739Z,6.57
2024-01-16T23:24:39.128Z,6.35
2024-01-16T23:27:09.547Z,7.17
2024-01-16T23:29:39.118Z,7.45
2024-01-16T23:32:08.371Z,6.78
2024-01-16T23:34:38.914Z,7.03
2024-01-16T23:37:08.641Z,6.68
2024-01-16T23:39:37.538Z,6.43
2024-01-16T23:42:07.432Z,7.07
2024-01-16T23:44:41.858Z,6.43
2024-01-16T23:47:10.403Z,5.65
2024-01-16T23:49:38.916Z,6.30
2024-01-16T23:52:09.491Z,6.57
2024-01-16T23:54:38.481Z,5.93
2024-01-16T23:57:07.187Z,6.75
2024-01-16T23:59:35.962Z,5.97
